Time;durP1;ratioP1;P1;durP2;ratioP2;P2;SDS_P1;SDS_P2;PMS_P1;PMS_P2;Temp;Humidity;BMP_temperature;BMP_pressure;BME280_temperature;BME280_humidity;BME280_pressure;Samples;Min_cycle;Max_cycle;Signal;HPM_P1;HPM_P2
2021/05/27 00:00:43;;;;;;;2.15;1.73;;;12.10;75.90;;;;;;3574814;40;20036;-72
2021/05/27 00:03:12;;;;;;;2.20;2.00;;;12.00;76.30;;;;;;3580160;40;20103;-73
2021/05/27 00:05:37;;;;;;;3.15;1.90;;;12.00;76.60;;;;;;3580436;40;20025;-70
2021/05/27 00:08:24;;;;;;;3.22;2.03;;;12.00;76.40;;;;;;3573987;40;20588;-70
2021/05/27 00:10:50;;;;;;;4.15;2.30;;;12.00;76.10;;;;;;3566295;40;20130;-69
2021/05/27 00:14:17;;;;;;;2.97;2.13;;;12.00;76.70;;;;;;3576798;40;20154;-71
2021/05/27 00:17:04;;;;;;;3.00;2.13;;;11.90;76.50;;;;;;3554554;40;20061;-70
2021/05/27 00:19:30;;;;;;;2.28;1.90;;;11.90;76.60;;;;;;3571820;40;20041;-69
2021/05/27 00:22:31;;;;;;;2.30;2.10;;;11.90;76.40;;;;;;3573637;40;20048;-69
2021/05/27 00:25:09;;;;;;;4.22;2.35;;;11.90;76.60;;;;;;3577515;40;20045;-69
2021/05/27 00:27:55;;;;;;;3.10;2.15;;;11.80;76.40;;;;;;3574038;40;20051;-69
2021/05/27 00:30:23;;;;;;;2.35;2.05;;;11.90;77.00;;;;;;3577557;40;20052;-69
2021/05/27 00:32:55;;;;;;;2.08;1.92;;;11.80;76.50;;;;;;3575990;40;20021;-70
2021/05/27 00:35:21;;;;;;;3.10;2.17;;;11.80;76.40;;;;;;3565117;40;20069;-70
2021/05/27 00:37:47;;;;;;;2.60;2.40;;;11.80;76.50;;;;;;3575937;40;20021;-70
2021/05/27 00:40:16;;;;;;;4.85;2.30;;;11.70;76.70;;;;;;3573606;40;20343;-71
2021/05/27 00:42:42;;;;;;;2.65;2.42;;;11.70;76.60;;;;;;3571185;40;20040;-70
2021/05/27 00:45:48;;;;;;;2.75;2.50;;;11.70;76.60;;;;;;3574798;40;20033;-69
2021/05/27 00:50:59;;;;;;;3.85;2.70;;;11.60;76.90;;;;;;3573880;40;20045;-69
2021/05/27 00:53:27;;;;;;;2.60;2.40;;;11.60;76.80;;;;;;3574993;40;20381;-70
2021/05/27 00:56:05;;;;;;;2.47;2.25;;;11.60;76.60;;;;;;3570696;40;20120;-70
2021/05/27 00:58:56;;;;;;;2.85;2.10;;;11.60;76.00;;;;;;3575399;40;20029;-71
2021/05/27 01:01:23;;;;;;;2.90;2.60;;;11.50;76.70;;;;;;3573894;40;20069;-70
2021/05/27 01:03:50;;;;;;;3.00;2.35;;;11.50;76.70;;;;;;3575755;40;20041;-69
2021/05/27 01:06:36;;;;;;;4.18;2.75;;;11.50;76.70;;;;;;3579398;40;20029;-69
2021/05/27 01:09:04;;;;;;;3.88;2.65;;;11.60;76.90;;;;;;3574329;40;20146;-70
2021/05/27 01:11:30;;;;;;;4.25;2.50;;;11.60;76.80;;;;;;3575753;40;20113;-69
2021/05/27 01:14:09;;;;;;;3.00;2.78;;;11.60;76.50;;;;;;3576961;40;20024;-70
2021/05/27 01:16:51;;;;;;;;;;;;;;;;;;;;;
2021/05/27 01:19:23;;;;;;;3.72;2.45;;;11.60;76.70;;;;;;3580339;40;20036;-70
2021/05/27 01:21:49;;;;;;;4.22;2.50;;;11.60;76.70;;;;;;3569631;40;20407;-70
2021/05/27 01:24:16;;;;;;;4.00;3.40;;;11.50;76.80;;;;;;3573340;40;20084;-71
2021/05/27 01:26:42;;;;;;;2.90;1.98;;;11.50;77.00;;;;;;3575347;40;20059;-71
2021/05/27 01:29:16;;;;;;;3.10;2.80;;;11.50;76.90;;;;;;3568713;40;20406;-69
2021/05/27 01:31:46;;;;;;;4.63;2.70;;;11.50;77.20;;;;;;3568276;40;20450;-71
2021/05/27 01:34:17;;;;;;;3.40;2.63;;;11.50;76.40;;;;;;3573733;40;20056;-71
2021/05/27 01:36:56;;;;;;;3.55;2.63;;;11.50;76.80;;;;;;3576324;40;20036;-69
2021/05/27 01:39:36;;;;;;;3.20;2.90;;;11.50;77.00;;;;;;3574466;40;20144;-71
2021/05/27 01:42:03;;;;;;;4.65;2.60;;;11.60;76.90;;;;;;3575133;40;20028;-69
2021/05/27 01:44:29;;;;;;;3.60;2.72;;;11.60;77.10;;;;;;3576431;40;20052;-69
2021/05/27 01:47:09;;;;;;;5.25;3.00;;;11.60;77.30;;;;;;3576138;40;20710;-69
2021/05/27 01:49:39;;;;;;;3.70;3.08;;;11.50;77.70;;;;;;3573212;40;20092;-70
2021/05/27 01:52:06;;;;;;;4.63;3.33;;;11.50;77.60;;;;;;3574943;40;20041;-70
2021/05/27 01:54:32;;;;;;;5.75;3.50;;;11.60;77.70;;;;;;3569795;40;20047;-70
2021/05/27 01:57:16;;;;;;;5.03;3.60;;;11.60;77.80;;;;;;3561455;40;20040;-70
2021/05/27 01:59:44;;;;;;;3.92;3.28;;;11.70;77.50;;;;;;3565432;40;20079;-69
2021/05/27 02:05:11;;;;;;;6.38;3.13;;;11.70;77.30;;;;;;3570822;40;20692;-69
2021/05/27 02:07:50;;;;;;;7.55;3.33;;;11.70;78.20;;;;;;3574690;40;20107;-68
2021/05/27 02:10:26;;;;;;;3.90;3.28;;;11.60;77.60;;;;;;3563854;40;20044;-70
2021/05/27 02:12:54;;;;;;;3.75;3.45;;;11.70;77.50;;;;;;3570353;40;20048;-70
2021/05/27 02:15:42;;;;;;;4.03;3.10;;;11.70;77.30;;;;;;3574746;40;20072;-69
2021/05/27 02:18:14;;;;;;;3.55;3.10;;;11.70;76.80;;;;;;3569951;40;20735;-70
2021/05/27 02:20:41;;;;;;;3.50;3.20;;;11.70;77.10;;;;;;3575032;40;20025;-70
2021/05/27 02:24:06;;;;;;;4.40;3.33;;;11.70;77.30;;;;;;3573967;40;20057;-70
2021/05/27 02:26:29;;;;;;;5.35;3.45;;;11.70;77.40;;;;;;3568451;40;20044;-70
2021/05/27 02:29:05;;;;;;;;;;;11.70;77.80;;;;;;3575290;40;20033;-70
2021/05/27 02:31:35;;;;;;;7.82;2.83;;;11.70;77.40;;;;;;3573039;40;20337;-70
2021/05/27 02:34:03;;;;;;;6.18;3.67;;;11.70;77.70;;;;;;3575179;40;20043;-70
2021/05/27 02:36:30;;;;;;;4.70;3.72;;;11.70;77.30;;;;;;3571366;40;20528;-70
2021/05/27 02:38:58;;;;;;;4.18;3.30;;;11.80;77.10;;;;;;3576363;40;20512;-70
2021/05/27 02:41:28;;;;;;;5.82;3.45;;;11.80;77.40;;;;;;3574021;40;20041;-70
2021/05/27 02:43:57;;;;;;;4.25;3.40;;;11.70;77.10;;;;;;3572403;40;20122;-69
2021/05/27 02:46:25;;;;;;;3.67;3.30;;;11.80;77.40;;;;;;3574673;40;20036;-71
2021/05/27 02:48:56;;;;;;;5.57;3.35;;;11.70;77.20;;;;;;3569616;40;20071;-70
2021/05/27 02:51:23;;;;;;;4.53;3.33;;;11.70;77.50;;;;;;3570401;40;20044;-73
2021/05/27 02:53:48;;;;;;;6.32;3.40;;;11.70;77.40;;;;;;3574203;40;20051;-71
2021/05/27 02:56:18;;;;;;;4.10;3.20;;;11.80;77.10;;;;;;3573453;40;20115;-72
2021/05/27 02:58:44;;;;;;;5.47;3.60;;;11.90;77.10;;;;;;3576789;40;20730;-72
2021/05/27 03:01:10;;;;;;;4.00;3.15;;;11.90;76.70;;;;;;3580158;40;20053;-72
2021/05/27 03:03:43;;;;;;;3.78;3.45;;;11.90;77.00;;;;;;3577104;40;20122;-71
2021/05/27 03:06:18;;;;;;;5.97;3.38;;;11.90;77.10;;;;;;3576542;40;20127;-71
2021/05/27 03:09:07;;;;;;;3.78;3.33;;;11.90;77.40;;;;;;3574396;40;20049;-71
2021/05/27 03:11:38;;;;;;;5.22;3.58;;;11.90;77.30;;;;;;3571396;40;20044;-73
2021/05/27 03:14:09;;;;;;;4.72;3.78;;;12.00;77.40;;;;;;3569884;40;20040;-72
2021/05/27 03:16:46;;;;;;;5.10;3.78;;;12.00;77.40;;;;;;3576649;40;20060;-71
2021/05/27 03:19:12;;;;;;;4.35;3.63;;;12.00;77.30;;;;;;3576387;40;20036;-71
2021/05/27 03:21:38;;;;;;;4.63;3.55;;;12.00;77.20;;;;;;3568380;40;20037;-72
2021/05/27 03:24:05;;;;;;;3.75;3.38;;;12.00;77.20;;;;;;3570753;40;20047;-72
2021/05/27 03:26:31;;;;;;;5.53;3.38;;;12.10;77.20;;;;;;3580977;40;20123;-69
2021/05/27 03:29:21;;;;;;;4.00;3.60;;;12.10;77.10;;;;;;3578483;40;20616;-70
2021/05/27 03:32:02;;;;;;;5.00;3.60;;;12.10;77.00;;;;;;3575768;40;20028;-70
2021/05/27 03:34:31;;;;;;;4.05;2.90;;;12.20;77.20;;;;;;3565503;40;20045;-68
2021/05/27 03:36:57;;;;;;;3.97;3.47;;;12.20;77.10;;;;;;3568852;40;20047;-70
2021/05/27 03:40:10;;;;;;;3.55;3.25;;;12.20;76.60;;;;;;3570209;40;20032;-71
2021/05/27 03:43:21;;;;;;;3.38;3.08;;;12.20;77.30;;;;;;3575516;40;20068;-72
2021/05/27 03:46:07;;;;;;;4.90;3.03;;;12.20;76.40;;;;;;3574206;40;20052;-69
2021/05/27 03:48:53;;;;;;;3.53;3.10;;;12.30;77.60;;;;;;3577150;40;20041;-70
2021/05/27 03:51:20;;;;;;;5.22;3.40;;;12.30;76.80;;;;;;3573686;40;20177;-70
2021/05/27 03:53:46;;;;;;;4.68;3.38;;;12.40;76.50;;;;;;3564839;40;20031;-72
2021/05/27 03:56:13;;;;;;;4.07;3.30;;;12.40;76.50;;;;;;3569412;40;20061;-70
2021/05/27 04:01:32;;;;;;;4.60;3.20;;;12.30;77.30;;;;;;3572540;40;20052;-71
2021/05/27 04:07:10;;;;;;;4.05;2.95;;;12.40;76.70;;;;;;3577520;40;20040;-72
2021/05/27 04:09:40;;;;;;;3.55;3.10;;;12.40;76.90;;;;;;3575572;40;20025;-71
2021/05/27 04:17:39;;;;;;;4.55;3.20;;;12.40;76.70;;;;;;3577929;40;20032;-71
2021/05/27 04:20:06;;;;;;;3.40;2.95;;;12.50;76.70;;;;;;3578775;40;20052;-70
2021/05/27 04:22:33;;;;;;;3.85;3.28;;;12.50;76.70;;;;;;3575429;40;20432;-70
2021/05/27 04:24:59;;;;;;;3.15;2.90;;;12.50;76.80;;;;;;3573713;40;20055;-69
2021/05/27 04:27:31;;;;;;;4.47;2.65;;;12.50;76.60;;;;;;3571461;40;20087;-70
2021/05/27 04:30:12;;;;;;;3.53;3.03;;;12.60;76.90;;;;;;3570547;40;20033;-70
2021/05/27 04:35:40;;;;;;;3.13;2.83;;;12.70;76.00;;;;;;3575399;40;20113;-70
2021/05/27 04:38:11;;;;;;;3.58;2.95;;;12.60;75.90;;;;;;3580789;40;20029;-70
2021/05/27 04:40:40;;;;;;;3.38;2.97;;;12.60;76.40;;;;;;3572403;40;20780;-69
2021/05/27 04:43:06;;;;;;;3.58;3.08;;;12.60;76.40;;;;;;3569180;40;20040;-67
2021/05/27 04:45:35;;;;;;;5.47;3.05;;;12.70;76.40;;;;;;3575800;40;20048;-69
2021/05/27 04:48:09;;;;;;;5.32;2.55;;;12.80;76.20;;;;;;3568169;40;20056;-70
2021/05/27 04:50:49;;;;;;;3.20;2.75;;;13.00;75.80;;;;;;3573099;40;20056;-70
2021/05/27 04:53:45;;;;;;;2.80;2.58;;;13.10;75.50;;;;;;3579800;40;20048;-71
2021/05/27 04:56:11;;;;;;;2.80;2.45;;;13.20;74.20;;;;;;3576212;40;20041;-69
2021/05/27 04:58:49;;;;;;;5.30;2.88;;;13.20;74.80;;;;;;3576864;40;20110;-70
2021/05/27 05:01:28;;;;;;;2.55;2.35;;;13.20;73.90;;;;;;3566362;40;20025;-67
2021/05/27 05:03:56;;;;;;;3.97;2.53;;;13.30;74.30;;;;;;3567636;40;20065;-69
2021/05/27 05:06:25;;;;;;;2.60;2.40;;;13.20;74.00;;;;;;3575177;40;20036;-70
2021/05/27 05:08:57;;;;;;;3.50;2.30;;;13.20;74.30;;;;;;3569268;40;20045;-68
2021/05/27 05:11:34;;;;;;;2.60;2.40;;;13.20;74.20;;;;;;3574150;40;20371;-70
2021/05/27 05:14:03;;;;;;;3.15;2.42;;;13.30;74.40;;;;;;3571867;40;20025;-70
2021/05/27 05:16:37;;;;;;;2.55;2.35;;;13.30;74.00;;;;;;3578579;40;20516;-69
2021/05/27 05:19:12;;;;;;;2.65;2.45;;;13.40;74.60;;;;;;3577128;40;20028;-69
2021/05/27 05:21:54;;;;;;;2.63;2.10;;;13.50;73.90;;;;;;3561458;40;20026;-71
2021/05/27 05:24:56;;;;;;;5.72;2.55;;;13.50;73.50;;;;;;3577759;40;20036;-70
2021/05/27 05:27:37;;;;;;;3.10;2.35;;;13.50;74.10;;;;;;3567336;40;20084;-70
2021/05/27 05:30:06;;;;;;;3.05;2.40;;;13.50;73.40;;;;;;3578409;40;20401;-70
2021/05/27 05:32:36;;;;;;;3.80;2.70;;;13.60;72.90;;;;;;3572204;40;20040;-69
2021/05/27 05:35:04;;;;;;;2.97;2.25;;;13.70;72.80;;;;;;3576058;40;20504;-71
2021/05/27 05:37:30;;;;;;;3.63;1.73;;;13.70;73.20;;;;;;3576558;40;20187;-72
2021/05/27 05:39:59;;;;;;;4.07;2.55;;;13.80;72.40;;;;;;3575721;40;20045;-70
2021/05/27 05:42:52;;;;;;;2.72;2.50;;;13.90;72.30;;;;;;3575294;40;20049;-71
2021/05/27 05:45:22;;;;;;;2.28;2.05;;;14.00;71.70;;;;;;3579684;40;20029;-70
2021/05/27 05:47:54;;;;;;;2.60;2.40;;;14.10;71.40;;;;;;3571839;40;20826;-71
2021/05/27 05:50:47;;;;;;;3.50;2.38;;;14.40;70.30;;;;;;3574064;40;20057;-69
2021/05/27 05:53:52;;;;;;;2.67;2.22;;;15.00;68.60;;;;;;3576228;40;20037;-70
2021/05/27 05:56:29;;;;;;;2.40;2.20;;;15.30;66.70;;;;;;3573611;40;20048;-70
2021/05/27 05:59:07;;;;;;;4.55;2.33;;;15.30;67.40;;;;;;3573613;40;20176;-69
2021/05/27 06:01:51;;;;;;;3.23;2.40;;;15.30;67.70;;;;;;3570991;40;20069;-70
2021/05/27 06:04:18;;;;;;;5.82;2.47;;;15.20;66.70;;;;;;3574137;40;20275;-70
2021/05/27 06:07:08;;;;;;;4.93;2.72;;;15.10;67.40;;;;;;3577397;40;20060;-71
2021/05/27 06:10:08;;;;;;;2.97;2.33;;;14.90;67.30;;;;;;3579170;40;20063;-70
2021/05/27 06:12:39;;;;;;;5.18;2.72;;;14.70;68.10;;;;;;3576143;40;20036;-70
2021/05/27 06:15:06;;;;;;;4.20;2.40;;;14.40;69.50;;;;;;3566060;40;20032;-70
2021/05/27 06:17:32;;;;;;;6.00;2.80;;;14.30;70.10;;;;;;3562352;40;20066;-71
2021/05/27 06:20:22;;;;;;;3.00;2.50;;;14.30;70.60;;;;;;3577717;40;20689;-72
2021/05/27 06:22:55;;;;;;;6.82;2.83;;;14.30;70.90;;;;;;3559273;40;20033;-70
2021/05/27 06:25:31;;;;;;;3.85;2.90;;;14.20;70.70;;;;;;3565029;40;20592;-70
2021/05/27 06:28:22;;;;;;;3.75;2.65;;;14.20;70.80;;;;;;3574034;40;20052;-72
2021/05/27 06:30:51;;;;;;;4.60;2.70;;;14.10;71.00;;;;;;3573260;40;20049;-71
2021/05/27 06:33:40;;;;;;;2.58;2.35;;;14.20;71.00;;;;;;3561470;40;20040;-70
2021/05/27 06:36:17;;;;;;;3.90;2.40;;;14.20;71.30;;;;;;3568457;40;20049;-69
2021/05/27 06:38:43;;;;;;;4.60;2.33;;;14.00;71.40;;;;;;3575734;40;20025;-70
2021/05/27 06:41:35;;;;;;;2.58;2.15;;;13.80;74.60;;;;;;3574172;40;20396;-69
2021/05/27 06:44:11;;;;;;;3.70;2.28;;;13.70;75.20;;;;;;3551762;40;20236;-71
2021/05/27 06:46:45;;;;;;;2.38;2.17;;;13.80;75.30;;;;;;3571069;40;20033;-69
2021/05/27 06:49:29;;;;;;;4.90;1.98;;;13.80;75.30;;;;;;3558021;40;20089;-69
2021/05/27 06:52:00;;;;;;;4.78;2.00;;;13.70;74.80;;;;;;3575989;40;20052;-70
2021/05/27 06:54:30;;;;;;;4.25;2.00;;;13.60;75.60;;;;;;3579512;40;20114;-70
2021/05/27 06:57:02;;;;;;;2.22;1.70;;;13.50;75.80;;;;;;3571297;40;20129;-70
2021/05/27 06:59:28;;;;;;;2.42;1.70;;;13.70;75.00;;;;;;3573112;40;20013;-71
2021/05/27 07:01:57;;;;;;;2.08;1.70;;;13.70;74.80;;;;;;3572575;39;20029;-72
2021/05/27 07:04:23;;;;;;;1.85;1.67;;;13.70;75.10;;;;;;3574778;40;20148;-71
2021/05/27 07:06:49;;;;;;;2.40;2.10;;;13.70;75.00;;;;;;3572716;39;20025;-72
2021/05/27 07:09:15;;;;;;;2.78;2.20;;;13.90;74.40;;;;;;3570840;40;20041;-68
2021/05/27 07:11:41;;;;;;;2.10;1.90;;;14.00;73.00;;;;;;3567968;40;20036;-69
2021/05/27 07:14:10;;;;;;;1.85;1.75;;;14.10;73.30;;;;;;3562483;40;20045;-68
2021/05/27 07:16:39;;;;;;;2.10;1.90;;;14.30;73.10;;;;;;3574288;40;20092;-69
2021/05/27 07:19:07;;;;;;;3.38;2.00;;;14.30;71.80;;;;;;3568215;40;20045;-69
2021/05/27 07:21:33;;;;;;;2.00;1.80;;;14.30;72.00;;;;;;3572175;40;20049;-69
2021/05/27 07:23:59;;;;;;;2.17;1.80;;;14.30;71.90;;;;;;3574430;40;20147;-70
2021/05/27 07:26:26;;;;;;;2.10;1.83;;;14.40;71.20;;;;;;3574918;40;20033;-70
2021/05/27 07:28:52;;;;;;;2.55;2.10;;;14.40;71.50;;;;;;3574701;40;20033;-69
2021/05/27 07:31:18;;;;;;;4.57;1.80;;;14.50;71.40;;;;;;3575155;40;20021;-69
2021/05/27 07:33:44;;;;;;;2.97;1.98;;;14.50;70.70;;;;;;3573499;40;20035;-69
2021/05/27 07:36:12;;;;;;;1.70;1.60;;;14.60;71.00;;;;;;3570483;40;20033;-69
2021/05/27 07:38:38;;;;;;;1.92;1.48;;;14.60;70.60;;;;;;3570322;40;20037;-69
2021/05/27 07:41:06;;;;;;;2.47;1.75;;;14.70;69.80;;;;;;3573937;40;20070;-69
2021/05/27 07:43:31;;;;;;;4.00;1.73;;;14.70;69.80;;;;;;3575074;40;20151;-68
2021/05/27 07:45:58;;;;;;;2.75;1.60;;;14.70;69.10;;;;;;3575522;40;20017;-68
2021/05/27 07:48:24;;;;;;;2.95;2.05;;;14.60;69.80;;;;;;3576439;40;20029;-69
2021/05/27 07:50:50;;;;;;;1.77;1.50;;;14.60;69.10;;;;;;3571979;40;20025;-67
2021/05/27 07:53:37;;;;;;;2.85;1.40;;;14.70;70.10;;;;;;3578344;40;20048;-67
2021/05/27 07:56:03;;;;;;;1.73;1.45;;;14.80;68.70;;;;;;3575523;39;20024;-67
2021/05/27 07:58:28;;;;;;;1.38;1.27;;;14.70;69.30;;;;;;3577380;40;20073;-71
2021/05/27 08:00:54;;;;;;;1.40;1.10;;;14.80;70.10;;;;;;3576743;40;20028;-69
2021/05/27 08:03:20;;;;;;;1.40;1.30;;;14.70;70.20;;;;;;3579808;40;20033;-69
2021/05/27 08:05:46;;;;;;;1.40;1.30;;;14.60;70.30;;;;;;3573774;40;20587;-70
2021/05/27 08:08:12;;;;;;;2.38;1.10;;;14.80;70.10;;;;;;3566527;40;20033;-68
2021/05/27 08:10:46;;;;;;;1.00;1.00;;;15.00;68.40;;;;;;3572425;40;20031;-70
2021/05/27 08:13:13;;;;;;;1.67;1.00;;;15.30;67.50;;;;;;3571889;40;20029;-69
2021/05/27 08:15:39;;;;;;;2.15;1.02;;;15.60;66.70;;;;;;3572385;40;20036;-68
2021/05/27 08:18:05;;;;;;;1.52;1.38;;;15.80;65.20;;;;;;3574076;40;20121;-69
2021/05/27 08:20:31;;;;;;;1.52;1.20;;;15.90;65.10;;;;;;3572752;40;20026;-68
2021/05/27 08:22:57;;;;;;;1.83;1.10;;;15.90;64.60;;;;;;3571288;40;20346;-69
2021/05/27 08:25:22;;;;;;;1.27;1.15;;;15.80;65.20;;;;;;3575327;40;20036;-69
2021/05/27 08:27:48;;;;;;;1.95;0.95;;;15.60;63.80;;;;;;3579797;40;20547;-69
2021/05/27 08:30:14;;;;;;;2.28;1.20;;;15.30;64.50;;;;;;3574076;40;20333;-68
2021/05/27 08:32:41;;;;;;;0.95;0.80;;;15.10;66.00;;;;;;3575857;40;20029;-68
2021/05/27 08:35:09;;;;;;;0.88;0.88;;;15.00;66.90;;;;;;3575903;39;20073;-68
2021/05/27 08:37:34;;;;;;;0.80;0.80;;;15.00;67.70;;;;;;3573750;40;20156;-69
2021/05/27 08:40:00;;;;;;;1.35;0.80;;;15.30;67.50;;;;;;3576593;40;20773;-69
2021/05/27 08:42:26;;;;;;;0.85;0.50;;;15.70;66.60;;;;;;3576270;40;20752;-70
2021/05/27 08:44:55;;;;;;;0.45;0.43;;;16.20;65.20;;;;;;3573643;40;20117;-69
2021/05/27 08:47:21;;;;;;;2.97;0.40;;;16.70;63.20;;;;;;3573319;40;20126;-69
2021/05/27 08:49:49;;;;;;;0.60;0.38;;;17.00;60.60;;;;;;3581374;40;20029;-69
2021/05/27 08:52:15;;;;;;;2.67;0.40;;;17.00;58.10;;;;;;3572388;40;20056;-70
2021/05/27 08:54:42;;;;;;;0.30;0.30;;;16.90;58.30;;;;;;3575107;40;20144;-70
2021/05/27 08:57:07;;;;;;;0.93;0.40;;;16.80;59.00;;;;;;3576527;40;20040;-70
2021/05/27 08:59:33;;;;;;;0.70;0.45;;;16.90;58.60;;;;;;3575939;40;20044;-70
2021/05/27 09:02:08;;;;;;;2.22;0.40;;;16.80;57.70;;;;;;3578860;40;20028;-69
2021/05/27 09:04:34;;;;;;;0.95;0.40;;;16.70;57.80;;;;;;3574196;40;20068;-69
2021/05/27 09:07:01;;;;;;;0.77;0.50;;;16.60;58.50;;;;;;3576002;40;20032;-69
2021/05/27 09:09:57;;;;;;;0.60;0.40;;;16.50;58.60;;;;;;3576539;40;20122;-69
2021/05/27 09:12:30;;;;;;;1.27;0.60;;;16.50;58.80;;;;;;3574111;40;20615;-69
2021/05/27 09:14:57;;;;;;;0.30;0.25;;;16.50;58.90;;;;;;3574668;40;20033;-69
2021/05/27 09:17:22;;;;;;;0.88;0.45;;;16.50;59.90;;;;;;3571346;40;20033;-69
2021/05/27 09:20:12;;;;;;;1.17;0.47;;;16.70;59.10;;;;;;3574202;40;20044;-69
2021/05/27 09:22:38;;;;;;;0.88;0.40;;;16.80;57.40;;;;;;3571769;40;20043;-70
2021/05/27 09:25:05;;;;;;;0.50;0.50;;;17.00;58.10;;;;;;3574944;40;20411;-69
2021/05/27 09:27:45;;;;;;;0.28;0.28;;;17.10;56.80;;;;;;3578904;40;20053;-69
2021/05/27 09:30:13;;;;;;;0.68;0.60;;;17.20;56.60;;;;;;3575379;40;20028;-71
2021/05/27 09:32:40;;;;;;;1.67;0.73;;;17.20;55.70;;;;;;3576936;40;20033;-69
2021/05/27 09:35:09;;;;;;;0.93;0.93;;;17.20;56.40;;;;;;3576182;40;20036;-70
2021/05/27 09:37:35;;;;;;;0.93;0.90;;;17.30;57.10;;;;;;3576998;40;20024;-70
2021/05/27 09:40:02;;;;;;;0.50;0.50;;;17.60;56.10;;;;;;3578371;40;20118;-70
2021/05/27 09:42:29;;;;;;;2.10;1.80;;;17.70;54.60;;;;;;3577735;40;20064;-71
2021/05/27 09:44:55;;;;;;;2.97;1.63;;;17.90;54.50;;;;;;3575640;40;20307;-69
2021/05/27 09:47:34;;;;;;;0.52;0.50;;;18.00;54.30;;;;;;3576468;40;20584;-72
2021/05/27 09:50:03;;;;;;;0.50;0.50;;;18.10;52.80;;;;;;3574146;40;20105;-71
2021/05/27 09:52:46;;;;;;;0.50;0.35;;;18.00;53.30;;;;;;3576607;40;20055;-70
2021/05/27 09:55:19;;;;;;;0.60;0.50;;;17.80;52.70;;;;;;3573209;40;20068;-70
2021/05/27 09:57:46;;;;;;;1.50;0.70;;;17.90;53.80;;;;;;3574808;40;20047;-71
2021/05/27 10:00:21;;;;;;;0.60;0.38;;;18.10;54.10;;;;;;3576589;40;20044;-71
2021/05/27 10:02:48;;;;;;;1.25;0.47;;;18.30;53.10;;;;;;3575895;40;20044;-71
2021/05/27 10:05:14;;;;;;;0.68;0.60;;;18.30;53.10;;;;;;3576911;40;20390;-71
2021/05/27 10:07:48;;;;;;;0.73;0.50;;;18.50;52.40;;;;;;3570955;40;20047;-70
2021/05/27 10:10:16;;;;;;;1.25;0.50;;;18.50;51.20;;;;;;3573896;40;20036;-71
2021/05/27 10:12:45;;;;;;;0.47;0.47;;;18.40;51.90;;;;;;3579104;40;20051;-71
2021/05/27 10:15:16;;;;;;;0.47;0.38;;;18.30;52.10;;;;;;3578275;40;20132;-70
2021/05/27 10:17:43;;;;;;;1.25;0.30;;;18.40;52.60;;;;;;3575880;40;20025;-71
2021/05/27 10:20:13;;;;;;;0.90;0.55;;;18.30;52.30;;;;;;3576387;40;20655;-70
2021/05/27 10:22:39;;;;;;;0.45;0.40;;;18.30;53.10;;;;;;3570422;40;20044;-70
2021/05/27 10:25:08;;;;;;;0.75;0.47;;;18.20;53.80;;;;;;3577449;40;20066;-72
2021/05/27 10:27:35;;;;;;;0.80;0.40;;;18.10;54.30;;;;;;3577604;40;20033;-70
2021/05/27 10:30:03;;;;;;;0.40;0.20;;;18.00;55.00;;;;;;3576385;40;20053;-70
2021/05/27 10:32:29;;;;;;;0.30;0.20;;;17.90;53.30;;;;;;3578156;40;20025;-68
2021/05/27 10:34:55;;;;;;;0.52;0.43;;;17.80;54.20;;;;;;3578195;40;20033;-71
2021/05/27 10:37:33;;;;;;;0.60;0.40;;;17.70;54.80;;;;;;3570924;40;20017;-71
2021/05/27 10:40:00;;;;;;;3.17;0.50;;;17.40;56.00;;;;;;3575989;40;20026;-71
2021/05/27 10:45:36;;;;;;;0.50;0.35;;;16.80;61.00;;;;;;3575170;40;20130;-72
2021/05/27 10:48:14;;;;;;;0.55;0.25;;;16.70;62.60;;;;;;3576493;40;20036;-72
2021/05/27 10:51:35;;;;;;;0.68;0.60;;;17.00;63.30;;;;;;3575153;40;20031;-71
2021/05/27 10:53:41;;;;;;;1.33;0.50;;;17.40;60.20;;;;;;3571970;40;20499;-74
2021/05/27 10:56:11;;;;;;;0.35;0.35;;;17.70;58.40;;;;;;3573371;40;20037;-71
2021/05/27 10:58:46;;;;;;;0.47;0.32;;;17.80;58.00;;;;;;3572549;40;20728;-69
2021/05/27 11:01:19;;;;;;;1.20;0.50;;;18.00;57.30;;;;;;3573446;40;20037;-71
2021/05/27 11:03:50;;;;;;;0.90;0.40;;;18.20;56.60;;;;;;3575006;40;20536;-71
2021/05/27 11:06:40;;;;;;;0.22;0.22;;;18.20;54.40;;;;;;3573189;40;20040;-69
2021/05/27 11:09:21;;;;;;;0.22;0.22;;;18.40;55.10;;;;;;3574992;40;20318;-71
2021/05/27 11:11:47;;;;;;;0.25;0.20;;;18.40;55.30;;;;;;3573777;40;20033;-71
2021/05/27 11:14:13;;;;;;;0.52;0.50;;;18.30;55.30;;;;;;3574965;40;20744;-70
2021/05/27 11:25:07;;;;;;;0.63;0.50;;;16.60;68.00;;;;;;3573840;40;20035;-70
2021/05/27 11:27:34;;;;;;;0.50;0.50;;;16.30;70.20;;;;;;3574515;40;20047;-69
2021/05/27 11:30:33;;;;;;;2.47;0.70;;;16.10;70.60;;;;;;3577170;40;20110;-69
2021/05/27 11:33:04;;;;;;;1.50;0.50;;;16.10;72.40;;;;;;3574867;40;20802;-69
2021/05/27 11:35:51;;;;;;;0.70;0.70;;;16.20;71.40;;;;;;3574912;40;20037;-70
2021/05/27 11:38:22;;;;;;;1.83;0.70;;;16.40;71.30;;;;;;3574852;40;20032;-70
2021/05/27 11:41:01;;;;;;;0.38;0.35;;;16.60;70.30;;;;;;3577366;40;20060;-69
2021/05/27 11:43:37;;;;;;;1.70;0.57;;;16.60;68.60;;;;;;3576869;40;20325;-71
2021/05/27 11:46:08;;;;;;;0.40;0.40;;;16.80;70.90;;;;;;3575953;40;20440;-71
2021/05/27 11:48:42;;;;;;;0.68;0.30;;;16.90;67.00;;;;;;3573854;40;20048;-71
2021/05/27 11:51:13;;;;;;;1.13;0.50;;;17.00;64.80;;;;;;3577246;40;20044;-71
2021/05/27 11:53:47;;;;;;;0.47;0.30;;;17.00;67.40;;;;;;3573964;40;20055;-71
2021/05/27 11:56:14;;;;;;;1.58;0.30;;;17.10;64.70;;;;;;3574460;40;20789;-71
2021/05/27 11:58:41;;;;;;;0.38;0.32;;;17.30;63.80;;;;;;3575334;40;20397;-71
2021/05/27 12:01:20;;;;;;;0.52;0.30;;;17.30;63.80;;;;;;3577882;40;20044;-72
2021/05/27 12:04:17;;;;;;;0.60;0.38;;;17.40;62.10;;;;;;3579987;40;20032;-72
2021/05/27 12:07:01;;;;;;;2.40;0.95;;;17.60;62.10;;;;;;3577858;40;20025;-72
2021/05/27 12:09:34;;;;;;;0.85;0.38;;;17.80;60.90;;;;;;3574832;40;20477;-72
2021/05/27 12:12:10;;;;;;;0.30;0.30;;;18.00;59.50;;;;;;3573906;40;20820;-72
2021/05/27 12:14:48;;;;;;;0.25;0.25;;;18.00;59.20;;;;;;3572762;40;20041;-71
2021/05/27 12:17:38;;;;;;;0.30;0.30;;;17.90;57.60;;;;;;3578138;40;20060;-71
2021/05/27 12:20:12;;;;;;;0.25;0.25;;;17.90;60.20;;;;;;3571107;40;20039;-72
2021/05/27 12:22:50;;;;;;;1.00;0.25;;;17.80;59.00;;;;;;3574422;40;20138;-72
2021/05/27 12:25:19;;;;;;;0.20;0.20;;;17.70;59.30;;;;;;3574491;40;20030;-71
2021/05/27 12:27:48;;;;;;;0.20;0.20;;;17.80;58.70;;;;;;3579520;40;20103;-71
2021/05/27 12:30:23;;;;;;;0.63;0.20;;;17.80;57.30;;;;;;3579849;40;20033;-71
2021/05/27 12:32:50;;;;;;;1.13;0.20;;;17.80;57.80;;;;;;3578873;40;20644;-70
2021/05/27 12:35:18;;;;;;;0.20;0.20;;;17.90;58.30;;;;;;3575499;40;20040;-71
2021/05/27 12:37:48;;;;;;;0.20;0.20;;;18.10;57.60;;;;;;3576486;40;20033;-70
2021/05/27 12:40:26;;;;;;;0.32;0.20;;;18.30;58.00;;;;;;3573933;40;20409;-71
2021/05/27 12:43:04;;;;;;;2.97;0.30;;;18.30;58.30;;;;;;3573617;40;20037;-71
2021/05/27 12:45:38;;;;;;;0.30;0.30;;;18.30;59.00;;;;;;3573851;40;20044;-69
2021/05/27 12:48:18;;;;;;;0.28;0.20;;;18.20;58.60;;;;;;3575550;40;20073;-70
2021/05/27 12:50:56;;;;;;;0.35;0.20;;;17.90;57.90;;;;;;3570572;40;20118;-70
2021/05/27 12:53:27;;;;;;;0.20;0.15;;;17.60;58.70;;;;;;3573092;40;20021;-73
2021/05/27 12:55:55;;;;;;;0.88;0.10;;;17.40;59.30;;;;;;3570542;40;20029;-74
2021/05/27 12:58:32;;;;;;;1.90;0.40;;;17.30;59.40;;;;;;3574909;40;20093;-73
2021/05/27 13:01:00;;;;;;;0.10;0.10;;;17.30;58.60;;;;;;3574758;40;20025;-71
2021/05/27 13:03:28;;;;;;;0.32;0.10;;;17.30;57.40;;;;;;3575049;40;20025;-72
2021/05/27 13:06:07;;;;;;;0.10;0.10;;;17.40;57.50;;;;;;3574173;40;20610;-66
2021/05/27 13:08:35;;;;;;;0.17;0.17;;;17.50;56.70;;;;;;3574320;40;20105;-72
2021/05/27 13:11:15;;;;;;;0.10;0.10;;;17.70;57.50;;;;;;3577673;40;20052;-71
2021/05/27 13:13:41;;;;;;;0.35;0.22;;;17.90;55.90;;;;;;3574492;40;20061;-73
2021/05/27 13:16:06;;;;;;;0.28;0.28;;;17.90;56.80;;;;;;3574989;40;20029;-72
2021/05/27 13:18:32;;;;;;;0.10;0.10;;;18.00;56.20;;;;;;3576800;40;20032;-73
2021/05/27 13:21:01;;;;;;;0.20;0.10;;;17.90;55.40;;;;;;3574760;40;20063;-73
2021/05/27 13:23:32;;;;;;;0.52;0.30;;;17.90;55.00;;;;;;3577820;40;20021;-74
2021/05/27 13:26:13;;;;;;;1.30;0.20;;;17.80;56.20;;;;;;3583560;40;20033;-74
2021/05/27 13:28:40;;;;;;;0.08;0.08;;;17.90;57.40;;;;;;3576374;40;20047;-73
2021/05/27 13:31:06;;;;;;;1.55;0.20;;;17.80;56.90;;;;;;3575205;40;20305;-74
2021/05/27 13:33:32;;;;;;;0.10;0.10;;;17.60;58.10;;;;;;3576112;40;20036;-73
2021/05/27 13:36:00;;;;;;;0.43;0.30;;;17.50;59.10;;;;;;3574352;40;20485;-71
2021/05/27 13:38:28;;;;;;;0.85;0.30;;;17.50;57.80;;;;;;3573502;40;20033;-77
2021/05/27 13:40:55;;;;;;;0.45;0.45;;;17.50;58.20;;;;;;3575190;40;20029;-77
2021/05/27 13:43:23;;;;;;;2.63;0.40;;;17.50;58.40;;;;;;3574857;40;20057;-74
2021/05/27 13:45:49;;;;;;;0.40;0.40;;;17.50;58.20;;;;;;3574422;40;20029;-71
2021/05/27 13:48:15;;;;;;;1.15;0.73;;;17.40;58.80;;;;;;3573177;40;20029;-71